Time;durP1;ratioP1;P1;durP2;ratioP2;P2;SDS_P1;SDS_P2;PMS_P1;PMS_P2;Temp;Humidity;BMP_temperature;BMP_pressure;BME280_temperature;BME280_humidity;BME280_pressure;Samples;Min_cycle;Max_cycle;Signal;HPM_P1;HPM_P2
2022/12/25 00:02:03;;;;;;;2.85;1.60;;;8.40;90.10;;;;;;5069577;28;20185;-68
2022/12/25 00:04:29;;;;;;;0.90;0.90;;;8.50;90.00;;;;;;5053926;28;20267;-67
2022/12/25 00:06:55;;;;;;;1.40;1.40;;;8.50;89.80;;;;;;5056484;28;20187;-68
2022/12/25 00:09:21;;;;;;;1.33;1.20;;;8.50;89.90;;;;;;5054209;28;20175;-68
2022/12/25 00:11:46;;;;;;;1.40;1.40;;;8.60;89.90;;;;;;5074338;28;20194;-69
2022/12/25 00:14:12;;;;;;;1.60;1.50;;;8.60;90.00;;;;;;5077324;28;20217;-68
2022/12/25 00:16:38;;;;;;;1.27;1.17;;;8.60;90.10;;;;;;5076549;28;20198;-69
2022/12/25 00:19:04;;;;;;;1.63;1.52;;;8.60;90.30;;;;;;5075544;28;20162;-69
2022/12/25 00:21:30;;;;;;;0.90;0.90;;;8.50;90.70;;;;;;5054970;28;20197;-68
2022/12/25 00:23:57;;;;;;;1.23;1.23;;;8.60;90.50;;;;;;5072291;28;20251;-69
2022/12/25 00:26:24;;;;;;;1.70;1.30;;;8.60;90.40;;;;;;5056481;28;20193;-69
2022/12/25 00:28:52;;;;;;;2.23;1.53;;;8.70;90.40;;;;;;5054530;28;20262;-69
2022/12/25 00:31:18;;;;;;;0.90;0.90;;;8.70;90.00;;;;;;5056151;28;20679;-68
2022/12/25 00:33:46;;;;;;;1.10;1.10;;;8.80;89.80;;;;;;5055760;28;20273;-68
2022/12/25 00:36:13;;;;;;;0.95;0.95;;;8.60;90.50;;;;;;5047688;28;20666;-69
2022/12/25 00:38:39;;;;;;;1.52;1.10;;;8.60;90.70;;;;;;5066090;28;20187;-69
2022/12/25 00:41:07;;;;;;;1.00;1.00;;;8.70;90.50;;;;;;5070622;28;20682;-69
2022/12/25 00:43:33;;;;;;;0.90;0.90;;;8.80;90.10;;;;;;5050396;28;20175;-69
2022/12/25 00:46:01;;;;;;;1.05;1.05;;;8.90;89.90;;;;;;5069972;28;20699;-67
2022/12/25 00:48:28;;;;;;;1.00;1.00;;;8.90;89.70;;;;;;5074836;28;20187;-67
2022/12/25 00:51:00;;;;;;;1.98;0.90;;;9.00;89.40;;;;;;5076031;28;20182;-68
2022/12/25 00:53:26;;;;;;;1.00;1.00;;;8.90;89.40;;;;;;5052805;28;20337;-68
2022/12/25 00:55:53;;;;;;;1.40;1.30;;;9.00;89.20;;;;;;5052196;28;20183;-68
2022/12/25 00:58:19;;;;;;;1.10;1.10;;;9.00;88.90;;;;;;5054497;28;20191;-68
2022/12/25 01:00:45;;;;;;;1.00;0.98;;;9.00;88.90;;;;;;5066517;28;20182;-68
2022/12/25 01:03:11;;;;;;;1.30;1.27;;;8.90;88.90;;;;;;5074238;28;20170;-68
2022/12/25 01:05:36;;;;;;;1.02;1.02;;;8.90;89.10;;;;;;5072323;28;20550;-69
2022/12/25 01:08:02;;;;;;;0.98;0.98;;;8.90;89.10;;;;;;5073465;28;20724;-68
2022/12/25 01:10:28;;;;;;;1.13;1.13;;;8.90;89.00;;;;;;5056310;28;20205;-69
2022/12/25 01:12:54;;;;;;;1.10;1.10;;;8.90;88.90;;;;;;5071718;28;20182;-68
2022/12/25 01:15:20;;;;;;;0.93;0.93;;;8.90;88.90;;;;;;5073590;28;20186;-69
2022/12/25 01:17:46;;;;;;;2.10;1.27;;;8.80;88.80;;;;;;5071342;28;20186;-68
2022/12/25 01:20:14;;;;;;;1.40;1.08;;;8.80;88.60;;;;;;5052641;28;20182;-69
2022/12/25 01:22:40;;;;;;;0.63;0.63;;;8.70;88.60;;;;;;5069115;28;20621;-69
2022/12/25 01:25:07;;;;;;;1.33;0.80;;;8.70;88.50;;;;;;5054285;28;20460;-68
2022/12/25 01:27:33;;;;;;;3.23;1.20;;;8.70;88.50;;;;;;5055650;28;20182;-69
2022/12/25 01:29:59;;;;;;;0.90;0.90;;;8.70;88.50;;;;;;5073592;28;20174;-67
2022/12/25 01:32:25;;;;;;;1.13;0.90;;;8.70;88.60;;;;;;5056075;28;20271;-68
2022/12/25 01:34:51;;;;;;;1.05;0.90;;;8.60;88.60;;;;;;5054929;28;20220;-68
2022/12/25 01:37:17;;;;;;;2.20;1.00;;;8.60;88.70;;;;;;5072220;28;20179;-67
2022/12/25 01:39:43;;;;;;;1.10;1.10;;;8.50;88.80;;;;;;5058280;28;20899;-67
2022/12/25 01:42:16;;;;;;;0.87;0.87;;;8.50;88.80;;;;;;5076626;28;20969;-68
2022/12/25 01:44:45;;;;;;;0.77;0.70;;;8.50;88.80;;;;;;5056260;28;20215;-68
2022/12/25 01:47:12;;;;;;;0.83;0.83;;;8.50;88.90;;;;;;5057596;28;20186;-68
2022/12/25 01:49:39;;;;;;;1.50;1.00;;;8.50;88.90;;;;;;5054737;28;20719;-68
2022/12/25 01:52:20;;;;;;;1.23;1.00;;;8.50;88.90;;;;;;5057736;28;20174;-68
2022/12/25 01:54:54;;;;;;;0.90;0.90;;;8.50;88.90;;;;;;5062546;28;20209;-69
2022/12/25 01:57:27;;;;;;;0.70;0.70;;;8.40;89.20;;;;;;5076512;28;20188;-69
2022/12/25 01:59:54;;;;;;;1.00;0.90;;;8.40;89.20;;;;;;5075630;28;20183;-68
2022/12/25 02:02:21;;;;;;;1.43;0.73;;;8.40;89.30;;;;;;5075337;28;20274;-68
2022/12/25 02:05:07;;;;;;;2.60;0.90;;;8.40;89.20;;;;;;5059356;28;20191;-68
2022/12/25 02:07:36;;;;;;;0.90;0.90;;;8.40;89.30;;;;;;5079088;28;20197;-68
2022/12/25 02:10:02;;;;;;;1.40;1.10;;;8.40;89.30;;;;;;5075968;28;20183;-68
2022/12/25 02:12:32;;;;;;;2.00;0.70;;;8.40;89.30;;;;;;5079117;28;20273;-67
2022/12/25 02:15:01;;;;;;;0.80;0.80;;;8.40;89.10;;;;;;5054418;28;20219;-68
2022/12/25 02:17:26;;;;;;;1.17;1.17;;;8.40;89.10;;;;;;5076777;28;20248;-68
2022/12/25 02:20:20;;;;;;;0.90;0.80;;;8.40;89.00;;;;;;5059302;28;20610;-69
2022/12/25 02:23:19;;;;;;;1.30;1.20;;;8.40;88.60;;;;;;5079173;28;20192;-67
2022/12/25 02:26:09;;;;;;;1.07;1.07;;;8.40;88.50;;;;;;5077288;28;20698;-68
2022/12/25 02:28:55;;;;;;;1.00;1.00;;;8.30;88.70;;;;;;5060159;28;20201;-67
2022/12/25 02:31:54;;;;;;;0.93;0.93;;;8.30;88.70;;;;;;5078686;28;20186;-68
2022/12/25 02:34:33;;;;;;;1.30;1.30;;;8.30;88.70;;;;;;5074218;28;20214;-68
2022/12/25 02:37:02;;;;;;;1.07;1.07;;;8.20;88.70;;;;;;5070764;28;20206;-67
2022/12/25 02:39:58;;;;;;;1.37;1.10;;;8.20;88.70;;;;;;5054119;28;20274;-69
2022/12/25 03:06:41;;;;;;;0.90;0.90;;;8.20;88.70;;;;;;5076380;28;20228;-69
2022/12/25 03:07:27;;;;;;;0.80;0.80;;;8.20;88.10;;;;;;5077093;28;20190;-68
2022/12/25 03:13:18;;;;;;;0.90;0.90;;;8.30;87.80;;;;;;5071175;28;21058;-68
2022/12/25 03:18:31;;;;;;;1.33;1.30;;;8.30;87.50;;;;;;5066101;28;20663;-70
2022/12/25 03:26:53;;;;;;;1.00;1.00;;;8.20;87.30;;;;;;5075396;28;21062;-69
2022/12/25 03:26:54;;;;;;;1.63;1.03;;;8.20;87.30;;;;;;5071962;28;20182;-69
2022/12/25 03:32:18;;;;;;;0.70;0.70;;;8.20;87.30;;;;;;5072389;28;20678;-69
2022/12/25 04:36:46;;;;;;;0.87;0.87;;;7.70;87.80;;;;;;5075548;28;20286;-67
2022/12/25 04:39:12;;;;;;;1.23;1.17;;;7.70;87.80;;;;;;5054495;28;20308;-68
2022/12/25 04:41:38;;;;;;;1.03;1.03;;;7.60;88.00;;;;;;5073567;28;20183;-68
2022/12/25 04:44:04;;;;;;;1.37;1.13;;;7.60;88.10;;;;;;5076617;28;20187;-69
2022/12/25 04:46:29;;;;;;;1.30;1.30;;;7.50;88.20;;;;;;5069376;28;20269;-66
2022/12/25 04:48:55;;;;;;;1.00;1.00;;;7.50;88.30;;;;;;5068800;28;20595;-69
2022/12/25 04:51:23;;;;;;;0.97;0.97;;;7.40;88.60;;;;;;5055679;28;20278;-67
2022/12/25 04:53:51;;;;;;;2.30;1.23;;;7.30;89.20;;;;;;5077117;28;20293;-68
2022/12/25 04:56:17;;;;;;;5.30;1.90;;;7.30;89.50;;;;;;5050723;28;20189;-69
2022/12/25 04:58:44;;;;;;;1.93;1.40;;;7.30;89.50;;;;;;5073253;28;20178;-68
2022/12/25 05:01:11;;;;;;;1.27;1.00;;;7.20;90.10;;;;;;5052385;28;20183;-68
2022/12/25 05:03:37;;;;;;;1.10;1.10;;;7.10;90.80;;;;;;5051359;28;20305;-69
2022/12/25 05:06:04;;;;;;;1.60;1.50;;;7.10;91.40;;;;;;5053269;28;20182;-68
2022/12/25 05:08:31;;;;;;;1.03;1.03;;;7.10;91.60;;;;;;5072951;28;20202;-69
2022/12/25 05:10:57;;;;;;;1.20;1.10;;;7.10;91.50;;;;;;5071352;28;20187;-68
2022/12/25 05:13:23;;;;;;;1.70;1.37;;;7.10;91.40;;;;;;5057314;28;20687;-68
2022/12/25 05:15:49;;;;;;;1.23;1.00;;;7.10;91.30;;;;;;5051396;28;20555;-69
2022/12/25 05:18:14;;;;;;;1.27;1.03;;;7.10;91.10;;;;;;5051443;28;20198;-68
2022/12/25 05:20:40;;;;;;;1.23;0.97;;;7.10;90.60;;;;;;5072449;28;20197;-68
2022/12/25 05:23:07;;;;;;;1.70;1.13;;;7.20;90.40;;;;;;5070997;28;20189;-67
2022/12/25 05:25:37;;;;;;;1.20;1.20;;;7.20;90.20;;;;;;5056068;28;20231;-68
2022/12/25 05:28:02;;;;;;;1.67;1.10;;;7.10;90.40;;;;;;5070743;28;20239;-68
2022/12/25 05:30:28;;;;;;;0.93;0.93;;;7.10;90.20;;;;;;5067086;28;20179;-69
2022/12/25 05:32:54;;;;;;;2.13;1.03;;;7.00;90.20;;;;;;5072300;28;21028;-69
2022/12/25 05:35:20;;;;;;;3.53;0.87;;;7.10;89.80;;;;;;5056497;28;20301;-68
2022/12/25 05:37:45;;;;;;;0.80;0.80;;;7.10;89.60;;;;;;5051013;28;20235;-68
2022/12/25 05:40:11;;;;;;;1.20;0.73;;;7.10;89.60;;;;;;5052160;28;21060;-67
2022/12/25 05:42:37;;;;;;;2.17;0.97;;;7.10;89.50;;;;;;5073352;28;20182;-68
2022/12/25 05:45:03;;;;;;;0.77;0.77;;;7.10;89.30;;;;;;5053376;28;20194;-69
2022/12/25 05:47:28;;;;;;;3.17;0.80;;;7.10;89.10;;;;;;5053678;28;20591;-68
2022/12/25 05:49:54;;;;;;;0.60;0.60;;;7.10;88.90;;;;;;5048459;28;20186;-68
2022/12/25 05:52:20;;;;;;;0.67;0.57;;;7.20;88.70;;;;;;5075212;28;20186;-67
2022/12/25 05:54:46;;;;;;;0.53;0.53;;;7.20;88.30;;;;;;5071821;28;20225;-68
2022/12/25 05:57:11;;;;;;;3.70;0.80;;;7.30;88.20;;;;;;5057944;28;20215;-68
2022/12/25 05:59:37;;;;;;;0.50;0.50;;;7.20;87.60;;;;;;5075221;28;20179;-68
2022/12/25 06:02:03;;;;;;;0.50;0.50;;;7.30;87.60;;;;;;5070314;28;20187;-67
2022/12/25 06:04:28;;;;;;;0.57;0.50;;;7.40;87.30;;;;;;5071103;28;20179;-68
2022/12/25 06:06:54;;;;;;;1.40;0.90;;;7.40;87.10;;;;;;5050517;28;20182;-67
2022/12/25 06:09:20;;;;;;;0.93;0.50;;;7.40;87.10;;;;;;5057874;28;20181;-68
2022/12/25 06:11:46;;;;;;;1.23;0.90;;;7.40;86.80;;;;;;5076542;28;20186;-68
2022/12/25 06:14:13;;;;;;;0.47;0.47;;;7.40;86.60;;;;;;5071772;28;20317;-66
2022/12/25 06:16:39;;;;;;;0.40;0.40;;;7.40;86.50;;;;;;5075165;28;20190;-68
2022/12/25 06:19:05;;;;;;;1.70;0.23;;;7.50;86.40;;;;;;5072143;28;20234;-69
2022/12/25 06:21:31;;;;;;;0.50;0.50;;;7.50;86.40;;;;;;5072448;28;20704;-67
2022/12/25 06:23:59;;;;;;;0.87;0.87;;;7.50;86.20;;;;;;5075275;28;20194;-67
2022/12/25 06:26:25;;;;;;;0.97;0.60;;;7.60;86.30;;;;;;5073177;28;20262;-67
2022/12/25 06:28:51;;;;;;;0.40;0.40;;;7.70;86.10;;;;;;5076021;28;20995;-67
2022/12/25 06:31:20;;;;;;;0.83;0.70;;;7.80;85.80;;;;;;5074823;28;20182;-68
2022/12/25 06:33:46;;;;;;;0.80;0.50;;;7.90;85.80;;;;;;5077302;28;20874;-68
2022/12/25 06:36:15;;;;;;;0.67;0.63;;;8.10;85.30;;;;;;5057265;28;20202;-68
2022/12/25 06:38:41;;;;;;;0.73;0.33;;;8.20;84.90;;;;;;5075282;28;20183;-68
2022/12/25 06:41:12;;;;;;;1.03;0.40;;;8.40;84.00;;;;;;5073190;28;20190;-69
2022/12/25 06:43:38;;;;;;;1.37;0.60;;;8.60;83.80;;;;;;5058262;28;20186;-69
2022/12/25 06:46:06;;;;;;;1.27;0.60;;;8.80;83.00;;;;;;5056368;28;20178;-68
2022/12/25 06:48:32;;;;;;;0.52;0.52;;;9.00;82.60;;;;;;5056524;28;20302;-68
2022/12/25 06:50:58;;;;;;;1.30;0.70;;;9.20;82.20;;;;;;5060412;28;20755;-70
2022/12/25 06:53:24;;;;;;;1.25;0.75;;;9.40;81.50;;;;;;5075197;28;20217;-69
2022/12/25 06:55:50;;;;;;;1.95;0.80;;;9.70;81.00;;;;;;5055051;28;20269;-69
2022/12/25 06:58:16;;;;;;;1.35;0.60;;;9.90;80.20;;;;;;5059495;28;20871;-69
2022/12/25 07:00:42;;;;;;;0.40;0.40;;;10.10;79.80;;;;;;5075841;28;21477;-70
2022/12/25 07:03:07;;;;;;;1.75;0.52;;;10.20;78.80;;;;;;5072942;28;20202;-69
2022/12/25 07:05:33;;;;;;;0.70;0.70;;;10.40;78.70;;;;;;5057604;28;20210;-70
2022/12/25 07:07:59;;;;;;;0.63;0.60;;;10.50;77.80;;;;;;5056414;28;20174;-70
2022/12/25 07:10:25;;;;;;;1.35;0.70;;;10.80;78.30;;;;;;5074251;28;20178;-69
2022/12/25 07:12:50;;;;;;;0.60;0.60;;;10.90;77.10;;;;;;5058605;28;20179;-68
2022/12/25 07:15:16;;;;;;;0.93;0.85;;;11.00;76.40;;;;;;5076843;28;20210;-70
2022/12/25 07:17:42;;;;;;;1.60;0.70;;;11.20;76.30;;;;;;5061682;28;20277;-70
2022/12/25 07:20:08;;;;;;;0.80;0.80;;;11.40;76.10;;;;;;5075028;28;20199;-69
2022/12/25 07:22:34;;;;;;;0.73;0.73;;;11.50;75.50;;;;;;5056301;28;20282;-69
2022/12/25 07:25:00;;;;;;;0.70;0.57;;;11.60;75.00;;;;;;5057558;28;20277;-70
2022/12/25 07:27:26;;;;;;;2.47;0.70;;;11.80;75.30;;;;;;5075983;28;20182;-69
2022/12/25 07:29:51;;;;;;;0.70;0.70;;;11.90;74.60;;;;;;5061877;28;20181;-70
2022/12/25 07:32:17;;;;;;;0.60;0.60;;;11.90;74.20;;;;;;5059638;28;20182;-68
2022/12/25 07:34:43;;;;;;;1.90;0.70;;;12.10;74.30;;;;;;5057599;28;20218;-70
2022/12/25 07:37:09;;;;;;;1.20;0.57;;;12.20;73.80;;;;;;5079616;28;20836;-69
2022/12/25 07:39:34;;;;;;;0.55;0.55;;;12.40;73.80;;;;;;5075636;28;20222;-68
2022/12/25 07:42:00;;;;;;;0.50;0.50;;;12.60;73.10;;;;;;5061567;28;20195;-69
2022/12/25 07:44:26;;;;;;;0.70;0.70;;;12.70;72.80;;;;;;5055902;28;20576;-68
2022/12/25 07:46:52;;;;;;;0.80;0.80;;;12.90;72.30;;;;;;5081519;28;20190;-68
2022/12/25 07:49:17;;;;;;;0.75;0.73;;;12.90;71.90;;;;;;5072242;28;20256;-69
2022/12/25 07:51:43;;;;;;;0.60;0.60;;;13.00;71.60;;;;;;5082159;28;20186;-68
2022/12/25 07:54:09;;;;;;;0.47;0.47;;;13.10;71.80;;;;;;5075565;28;20203;-68
2022/12/25 07:56:35;;;;;;;1.83;0.55;;;13.20;71.90;;;;;;5061294;28;22023;-68
2022/12/25 07:59:00;;;;;;;0.70;0.63;;;13.50;71.70;;;;;;5076166;28;20183;-69
2022/12/25 08:01:27;;;;;;;2.63;0.93;;;13.70;71.30;;;;;;5058216;28;20179;-68
2022/12/25 08:03:56;;;;;;;2.53;0.50;;;13.80;70.90;;;;;;5057927;28;20189;-68
2022/12/25 08:06:25;;;;;;;0.40;0.40;;;13.90;70.10;;;;;;5058065;28;20207;-70
2022/12/25 08:08:51;;;;;;;0.60;0.60;;;14.00;69.80;;;;;;5077513;28;20177;-68
2022/12/25 08:11:17;;;;;;;0.98;0.68;;;14.10;69.20;;;;;;5073650;28;20687;-69
2022/12/25 08:13:43;;;;;;;0.60;0.60;;;14.20;69.10;;;;;;5077452;28;20210;-69
2022/12/25 08:16:09;;;;;;;0.45;0.45;;;14.40;69.40;;;;;;5053048;28;20298;-69
2022/12/25 08:18:37;;;;;;;0.50;0.50;;;14.60;68.90;;;;;;5059432;28;20175;-69
2022/12/25 08:21:09;;;;;;;0.40;0.40;;;14.70;68.40;;;;;;5072685;28;20187;-67
2022/12/25 08:23:37;;;;;;;1.83;0.55;;;14.70;68.30;;;;;;5069418;28;20179;-68
2022/12/25 08:26:05;;;;;;;0.40;0.40;;;14.80;68.40;;;;;;5076242;28;20232;-68
2022/12/25 08:28:31;;;;;;;1.55;0.75;;;14.90;68.10;;;;;;5050246;28;20207;-68
2022/12/25 08:30:57;;;;;;;0.47;0.47;;;15.20;68.70;;;;;;5074310;28;20201;-69
2022/12/25 08:33:23;;;;;;;0.47;0.47;;;15.40;66.80;;;;;;5070203;28;20191;-69
2022/12/25 08:35:49;;;;;;;1.70;0.55;;;15.50;66.70;;;;;;5072829;28;20637;-68
2022/12/25 08:38:14;;;;;;;0.70;0.70;;;15.70;67.50;;;;;;5072669;28;20202;-69
2022/12/25 08:40:40;;;;;;;0.63;0.63;;;16.00;66.50;;;;;;5072696;28;20184;-69
2022/12/25 08:43:06;;;;;;;0.50;0.50;;;16.20;65.20;;;;;;5072149;28;20179;-69
2022/12/25 08:45:32;;;;;;;0.70;0.70;;;16.40;65.90;;;;;;5072320;28;20182;-68
2022/12/25 08:47:58;;;;;;;0.60;0.60;;;16.50;65.30;;;;;;5072534;28;20185;-69
2022/12/25 08:50:24;;;;;;;0.50;0.50;;;16.70;65.10;;;;;;5054188;28;20262;-69
2022/12/25 08:52:50;;;;;;;0.52;0.52;;;16.80;63.70;;;;;;5073142;28;20182;-68
2022/12/25 08:55:16;;;;;;;0.88;0.88;;;16.80;65.50;;;;;;5052898;28;20534;-67
2022/12/25 08:57:42;;;;;;;1.23;0.80;;;17.00;64.10;;;;;;5052982;28;20274;-69
2022/12/25 09:00:09;;;;;;;2.25;0.82;;;17.20;64.20;;;;;;5052738;28;20191;-69
2022/12/25 09:02:34;;;;;;;0.57;0.57;;;17.40;63.80;;;;;;5076532;28;20211;-69
2022/12/25 09:05:00;;;;;;;0.75;0.52;;;17.40;63.00;;;;;;5072989;28;20277;-69
2022/12/25 09:07:26;;;;;;;1.30;0.90;;;17.60;64.50;;;;;;5053789;28;20186;-70
2022/12/25 09:09:51;;;;;;;0.60;0.60;;;17.90;64.80;;;;;;5076215;28;20560;-68
2022/12/25 09:12:17;;;;;;;0.50;0.50;;;18.20;63.10;;;;;;5053789;28;20178;-68
2022/12/25 09:14:42;;;;;;;0.73;0.70;;;18.20;61.40;;;;;;5070781;28;20209;-68
2022/12/25 09:17:08;;;;;;;0.70;0.70;;;18.30;62.40;;;;;;5072234;28;20178;-69
2022/12/25 09:19:34;;;;;;;0.68;0.65;;;18.30;62.00;;;;;;5075156;28;20178;-68
2022/12/25 09:22:00;;;;;;;0.73;0.73;;;18.50;62.00;;;;;;5053846;28;20655;-69
2022/12/25 09:24:25;;;;;;;0.47;0.47;;;18.60;60.70;;;;;;5069390;28;20194;-69
2022/12/25 09:26:51;;;;;;;1.13;0.70;;;18.50;61.30;;;;;;5070354;28;20175;-69
2022/12/25 09:29:17;;;;;;;0.50;0.50;;;18.50;61.00;;;;;;5071464;28;20577;-68
2022/12/25 09:31:44;;;;;;;0.47;0.47;;;18.60;61.10;;;;;;5072984;28;20265;-69
2022/12/25 09:34:10;;;;;;;1.05;0.50;;;18.60;60.80;;;;;;5069979;28;20209;-68
2022/12/25 09:36:37;;;;;;;0.60;0.60;;;18.60;60.10;;;;;;5075641;28;20186;-68
2022/12/25 09:39:03;;;;;;;0.63;0.50;;;18.50;59.50;;;;;;5069707;28;20194;-68
2022/12/25 09:41:50;;;;;;;0.73;0.40;;;18.30;59.60;;;;;;5069613;28;20179;-71
2022/12/25 09:44:32;;;;;;;1.05;0.50;;;18.20;60.00;;;;;;5075132;28;20245;-70
2022/12/25 09:47:04;;;;;;;0.35;0.35;;;18.30;61.10;;;;;;5070712;28;20701;-70
2022/12/25 09:49:43;;;;;;;0.30;0.30;;;18.50;60.40;;;;;;5075380;28;20180;-68
2022/12/25 09:52:25;;;;;;;0.45;0.45;;;18.70;59.00;;;;;;5070702;28;20656;-68
2022/12/25 09:55:06;;;;;;;0.30;0.30;;;18.90;59.20;;;;;;5068956;28;20216;-69
2022/12/25 09:57:32;;;;;;;0.85;0.50;;;19.00;60.10;;;;;;5075112;28;20183;-69
2022/12/25 09:59:58;;;;;;;0.93;0.40;;;19.30;59.80;;;;;;5077428;28;20179;-68
2022/12/25 10:02:50;;;;;;;0.50;0.50;;;19.40;59.40;;;;;;5080251;28;20797;-68
2022/12/25 10:05:22;;;;;;;0.50;0.50;;;19.60;58.00;;;;;;5076631;28;20205;-69
2022/12/25 10:07:50;;;;;;;0.68;0.47;;;19.60;60.30;;;;;;5079418;28;20603;-69
2022/12/25 10:10:37;;;;;;;0.68;0.60;;;19.70;59.70;;;;;;5076757;28;20612;-68
2022/12/25 10:13:06;;;;;;;1.05;0.60;;;19.90;60.80;;;;;;5074320;28;20713;-69
2022/12/25 10:16:02;;;;;;;0.57;0.57;;;20.30;59.60;;;;;;5076384;28;20206;-69
2022/12/25 10:18:56;;;;;;;0.50;0.45;;;20.60;57.20;;;;;;5072914;28;20576;-69
2022/12/25 10:21:22;;;;;;;0.73;0.52;;;20.80;58.70;;;;;;5073331;28;20194;-69
2022/12/25 10:23:58;;;;;;;0.50;0.50;;;21.00;58.40;;;;;;5072484;28;20874;-67
2022/12/25 10:26:25;;;;;;;0.40;0.40;;;21.10;55.70;;;;;;5070279;28;20170;-70
2022/12/25 10:29:13;;;;;;;1.33;0.30;;;21.00;54.50;;;;;;5069802;28;20186;-69
2022/12/25 10:31:40;;;;;;;0.30;0.30;;;20.60;54.60;;;;;;5055569;28;20214;-71
2022/12/25 10:34:10;;;;;;;0.30;0.30;;;20.30;55.10;;;;;;5056251;28;20238;-71
2022/12/25 10:36:36;;;;;;;0.30;0.30;;;20.10;55.90;;;;;;5077710;28;20261;-70
2022/12/25 10:39:02;;;;;;;0.93;0.50;;;19.70;56.40;;;;;;5070605;28;20274;-71
2022/12/25 10:41:46;;;;;;;1.40;0.30;;;19.60;58.50;;;;;;5074499;28;20192;-72
2022/12/25 10:44:20;;;;;;;0.40;0.40;;;19.60;56.50;;;;;;5068320;28;20755;-70
2022/12/25 10:47:04;;;;;;;0.30;0.30;;;19.30;57.00;;;;;;5071995;28;20193;-69
2022/12/25 10:49:34;;;;;;;0.30;0.30;;;19.20;57.20;;;;;;5074149;28;20183;-68
2022/12/25 10:52:01;;;;;;;0.35;0.35;;;19.00;57.60;;;;;;5076712;28;20671;-69
2022/12/25 10:54:34;;;;;;;0.95;0.50;;;19.00;58.90;;;;;;5078081;28;20216;-70
2022/12/25 10:57:01;;;;;;;0.50;0.50;;;19.20;59.00;;;;;;5077062;28;20186;-68
2022/12/25 10:59:29;;;;;;;0.40;0.40;;;19.40;58.60;;;;;;5075039;28;20182;-69
2022/12/25 11:02:02;;;;;;;0.40;0.40;;;19.50;58.40;;;;;;5072579;28;20179;-69
2022/12/25 11:04:28;;;;;;;1.13;0.45;;;19.70;57.40;;;;;;5073076;28;20190;-70
2022/12/25 11:07:32;;;;;;;0.40;0.40;;;19.70;58.10;;;;;;5076123;28;20814;-69
2022/12/25 11:10:19;;;;;;;0.57;0.57;;;19.70;58.60;;;;;;5037498;28;20266;-69
2022/12/25 11:12:45;;;;;;;0.88;0.50;;;19.90;57.30;;;;;;5035392;28;20590;-70
2022/12/25 11:15:29;;;;;;;0.50;0.45;;;20.10;58.30;;;;;;5021818;28;20346;-70
2022/12/25 11:17:55;;;;;;;0.30;0.30;;;20.20;57.70;;;;;;5039463;28;20194;-69
2022/12/25 11:20:22;;;;;;;0.40;0.40;;;20.30;56.50;;;;;;5039679;28;20191;-70
2022/12/25 11:22:49;;;;;;;0.40;0.40;;;20.30;56.80;;;;;;5033855;28;20196;-70
2022/12/25 11:25:24;;;;;;;1.05;0.50;;;20.30;56.40;;;;;;5037775;28;20654;-70
2022/12/25 11:28:00;;;;;;;1.65;0.52;;;20.20;56.90;;;;;;5040397;28;20290;-70
2022/12/25 11:30:31;;;;;;;0.63;0.40;;;20.00;56.30;;;;;;5039464;28;20203;-70
2022/12/25 11:33:04;;;;;;;0.40;0.40;;;20.00;56.20;;;;;;5040049;28;20192;-72
2022/12/25 11:35:36;;;;;;;1.23;0.63;;;19.90;56.30;;;;;;5039035;28;20230;-70
2022/12/25 11:38:02;;;;;;;0.63;0.43;;;19.60;56.20;;;;;;5040230;28;20249;-72
2022/12/25 11:40:40;;;;;;;0.68;0.60;;;19.60;57.70;;;;;;5036898;28;20191;-72
2022/12/25 11:43:20;;;;;;;0.50;0.50;;;19.50;57.40;;;;;;5038848;28;20285;-72
2022/12/25 11:45:59;;;;;;;0.40;0.40;;;19.40;58.60;;;;;;5061226;28;20871;-72
2022/12/25 11:48:30;;;;;;;0.70;0.70;;;19.30;57.60;;;;;;5066917;28;20193;-70
2022/12/25 11:50:58;;;;;;;0.43;0.43;;;19.30;57.60;;;;;;5072731;28;20757;-72
2022/12/25 11:53:48;;;;;;;0.60;0.60;;;19.20;58.20;;;;;;5073743;28;20191;-72
2022/12/25 11:56:25;;;;;;;0.32;0.32;;;19.20;58.20;;;;;;5072365;28;20179;-72
2022/12/25 11:58:54;;;;;;;1.10;0.55;;;19.20;57.80;;;;;;5073199;28;20221;-72
2022/12/25 12:01:32;;;;;;;0.50;0.50;;;19.30;58.40;;;;;;5070121;28;20195;-72
2022/12/25 12:04:00;;;;;;;0.63;0.63;;;19.40;59.10;;;;;;5052419;28;20180;-71
2022/12/25 12:06:37;;;;;;;0.43;0.43;;;19.50;58.00;;;;;;5072881;28;20189;-71
2022/12/25 12:09:20;;;;;;;0.40;0.40;;;19.50;57.40;;;;;;5075430;28;20189;-72
2022/12/25 12:11:59;;;;;;;2.47;0.60;;;19.50;57.50;;;;;;5073465;28;20194;-72
2022/12/25 12:14:42;;;;;;;0.73;0.65;;;19.40;58.60;;;;;;5076760;28;20352;-71
2022/12/25 12:17:18;;;;;;;0.30;0.30;;;19.30;56.90;;;;;;5074557;28;20181;-73
2022/12/25 12:19:44;;;;;;;0.50;0.50;;;19.20;57.80;;;;;;5075265;28;20762;-72
2022/12/25 12:22:23;;;;;;;1.00;0.50;;;18.90;58.00;;;;;;5072935;28;20182;-72
2022/12/25 12:25:03;;;;;;;0.52;0.52;;;18.90;58.20;;;;;;5071984;28;20234;-72
2022/12/25 12:27:37;;;;;;;0.40;0.40;;;18.80;58.60;;;;;;5072565;28;20175;-71
2022/12/25 12:30:04;;;;;;;0.47;0.47;;;18.70;58.00;;;;;;5074347;28;20186;-71
2022/12/25 12:32:35;;;;;;;0.30;0.30;;;18.60;58.80;;;;;;5071681;28;20182;-70
2022/12/25 12:35:17;;;;;;;0.30;0.30;;;18.40;58.30;;;;;;5075994;28;20261;-73
2022/12/25 12:37:45;;;;;;;0.50;0.50;;;18.20;59.50;;;;;;5072845;28;20827;-72
2022/12/25 12:40:23;;;;;;;0.47;0.47;;;18.30;58.70;;;;;;5067121;28;20939;-72
2022/12/25 12:42:50;;;;;;;0.55;0.55;;;18.20;59.20;;;;;;5072930;28;20214;-73
2022/12/25 12:45:19;;;;;;;0.30;0.30;;;18.10;59.40;;;;;;5054826;28;20181;-72
2022/12/25 12:47:48;;;;;;;0.95;0.63;;;17.80;59.70;;;;;;5070637;28;20194;-73
2022/12/25 12:50:32;;;;;;;0.68;0.68;;;17.80;60.40;;;;;;5072314;28;20179;-70
2022/12/25 12:52:59;;;;;;;0.73;0.73;;;17.70;59.60;;;;;;5071295;28;20637;-70
2022/12/25 12:55:33;;;;;;;0.60;0.60;;;17.70;60.70;;;;;;5075158;28;20219;-71
2022/12/25 12:58:02;;;;;;;0.70;0.70;;;17.70;60.70;;;;;;5074456;28;20180;-71
2022/12/25 13:00:45;;;;;;;0.50;0.50;;;17.70;59.70;;;;;;5076046;28;20206;-70
2022/12/25 13:03:35;;;;;;;0.60;0.60;;;17.40;60.00;;;;;;5074009;28;20210;-71
2022/12/25 13:06:14;;;;;;;0.63;0.63;;;17.30;60.30;;;;;;5053918;28;20637;-71
2022/12/25 13:09:02;;;;;;;0.40;0.40;;;17.20;60.20;;;;;;5070632;28;20632;-70
2022/12/25 13:11:32;;;;;;;0.55;0.55;;;17.10;60.10;;;;;;5071184;28;20178;-72
2022/12/25 13:14:01;;;;;;;0.35;0.35;;;16.90;60.60;;;;;;5069907;28;20202;-71
2022/12/25 13:16:34;;;;;;;0.50;0.47;;;16.70;60.80;;;;;;5070997;28;20190;-69
2022/12/25 13:19:04;;;;;;;0.52;0.52;;;16.50;61.30;;;;;;5070830;28;20186;-72
2022/12/25 13:21:31;;;;;;;0.70;0.60;;;16.40;61.80;;;;;;5070757;28;20553;-71
2022/12/25 13:24:07;;;;;;;0.60;0.50;;;16.40;61.60;;;;;;5072720;28;20256;-72
2022/12/25 13:26:34;;;;;;;0.95;0.88;;;16.40;62.00;;;;;;5053375;28;20676;-72
2022/12/25 13:29:00;;;;;;;0.60;0.60;;;16.50;62.10;;;;;;5048838;28;20289;-71
2022/12/25 13:31:28;;;;;;;0.60;0.60;;;16.50;61.90;;;;;;5057718;28;20643;-73
2022/12/25 13:34:04;;;;;;;1.05;0.95;;;16.60;61.80;;;;;;5071106;28;20218;-73
2022/12/25 13:36:37;;;;;;;1.13;0.75;;;16.70;61.70;;;;;;5077340;28;20274;-72
2022/12/25 13:39:06;;;;;;;0.88;0.80;;;16.70;61.50;;;;;;5079895;28;20217;-72
2022/12/25 13:42:04;;;;;;;0.68;0.68;;;16.60;61.00;;;;;;5080821;28;20174;-72
2022/12/25 13:44:35;;;;;;;0.70;0.70;;;16.40;61.60;;;;;;5079078;28;20830;-70
2022/12/25 13:47:35;;;;;;;0.73;0.73;;;16.20;62.20;;;;;;5080594;28;20664;-71
2022/12/25 13:50:12;;;;;;;0.80;0.68;;;15.90;62.50;;;;;;5078221;28;20684;-69
2022/12/25 13:52:38;;;;;;;0.75;0.60;;;15.80;63.20;;;;;;5078357;28;20197;-70
2022/12/25 13:55:11;;;;;;;0.80;0.80;;;15.70;63.40;;;;;;5078981;28;20215;-72
2022/12/25 13:57:50;;;;;;;1.00;0.85;;;15.60;63.40;;;;;;5077789;28;20186;-70
2022/12/25 14:00:34;;;;;;;0.90;0.90;;;15.50;63.00;;;;;;5075400;28;20699;-70
2022/12/25 14:03:01;;;;;;;3.05;0.70;;;15.30;63.90;;;;;;5077681;28;20181;-70
2022/12/25 14:05:27;;;;;;;1.65;0.70;;;15.20;63.80;;;;;;5074811;28;20185;-71
2022/12/25 14:07:54;;;;;;;0.90;0.85;;;15.00;64.30;;;;;;5078113;28;20174;-69
2022/12/25 14:10:21;;;;;;;0.60;0.60;;;14.90;63.90;;;;;;5075668;28;20235;-70
2022/12/25 14:12:50;;;;;;;1.33;1.10;;;14.70;64.40;;;;;;5081635;28;20179;-70
2022/12/25 14:15:20;;;;;;;1.13;1.13;;;14.70;64.50;;;;;;5074912;28;20250;-69
2022/12/25 14:17:46;;;;;;;1.48;1.20;;;14.70;64.70;;;;;;5077917;28;20894;-70
2022/12/25 14:20:22;;;;;;;1.05;1.05;;;14.60;64.70;;;;;;5076992;28;20166;-70
2022/12/25 14:22:56;;;;;;;0.68;0.68;;;14.60;65.30;;;;;;5054327;28;20182;-68
2022/12/25 14:25:30;;;;;;;0.80;0.80;;;14.50;65.10;;;;;;5070440;28;20207;-69
2022/12/25 14:27:56;;;;;;;0.98;0.98;;;14.30;65.20;;;;;;5071630;28;20397;-69
2022/12/25 14:30:25;;;;;;;0.80;0.80;;;14.20;65.50;;;;;;5080337;28;20175;-70
2022/12/25 14:32:53;;;;;;;1.88;0.95;;;14.00;65.90;;;;;;5073210;28;20179;-69
2022/12/25 14:35:20;;;;;;;0.60;0.60;;;13.80;66.10;;;;;;5076882;28;20218;-71
2022/12/25 14:37:47;;;;;;;1.00;1.00;;;13.70;66.60;;;;;;5077692;28;20190;-69
2022/12/25 14:40:29;;;;;;;0.93;0.77;;;13.60;66.90;;;;;;5075283;28;20201;-69
2022/12/25 14:43:00;;;;;;;0.80;0.80;;;13.40;67.50;;;;;;5075846;28;20181;-68